METAR UND TAF INFORMATION

METAR FOR GOBD
ADDS - METARS form results

(0450 UTC 26 June 2022)
Data provider http://aviationweather.gov/metar/data/
 
METAR text: GOBD 260430Z 30008KT 7000 NSC 26/24 Q1010 NOSIG
Conditions at: GOBD (DAKAR/DIAGNE , SN) observed 0430 UTC 26 June 2022
Temperature: 26.0°C (79°F)
Dewpoint: 24.0°C (75°F) [RH = 89%]
Pressure (altimeter): 29.82 inches Hg (1010.0 mb)
Winds: from the WNW (300 degrees) at 9 MPH (8 knots; 4.1 m/s)
Visibility: 4 miles ( 7 km)
Ceiling: at least 12,000 feet AGL
Clouds: sky clear below 12,000 feet AGL
Weather: no significant weather observed at this time

METAR text: GOBD 260400Z 30007KT 7000 NSC 26/24 Q1011 NOSIG
Conditions at: GOBD (DAKAR/DIAGNE , SN) observed 0400 UTC 26 June 2022
Temperature: 26.0°C (79°F)
Dewpoint: 24.0°C (75°F) [RH = 89%]
Pressure (altimeter): 29.85 inches Hg (1011.0 mb)
Winds: from the WNW (300 degrees) at 8 MPH (7 knots; 3.6 m/s)
Visibility: 4 miles ( 7 km)
Ceiling: at least 12,000 feet AGL
Clouds: sky clear below 12,000 feet AGL
Weather: no significant weather observed at this time

Forecast for: GOBD (DAKAR/DIAGNE , SN)
Text: TAF GOBD 252300Z 2600/2706 33010KT 8000 NSC
Forecast period: 0000 UTC 26 June 2022 to 0600 UTC 27 June 2022
Forecast type: FROM: standard forecast or significant change
Winds: from the NNW (330 degrees) at 12 MPH (10 knots; 5.1 m/s)
Visibility: 5 miles (8 km)
Ceiling: unknown
Clouds: missing
Weather: no significant weather forecast for this period

 FLUGHAFENKARTE

 RUNWAY INFORMATION

 AIRPORT FREQUENCIES

 AIRPORT NEAR NAVIGATION AIDS